createdAt,value
2022-10-05T00:00:03.407Z,8.9
2022-10-05T00:01:07.928Z,8.9
2022-10-05T00:02:17.326Z,8.8
2022-10-05T00:03:22.045Z,8.8
2022-10-05T00:04:26.203Z,8.9
2022-10-05T00:05:30.598Z,8.9
2022-10-05T00:06:34.932Z,8.8
2022-10-05T00:07:39.392Z,8.8
2022-10-05T00:08:43.690Z,8.7
2022-10-05T00:09:48.007Z,8.7
2022-10-05T00:10:55.259Z,8.7
2022-10-05T00:11:59.763Z,8.8
2022-10-05T00:13:12.187Z,8.7
2022-10-05T00:14:16.686Z,8.8
2022-10-05T00:15:25.511Z,8.8
2022-10-05T00:16:29.897Z,8.8
2022-10-05T00:17:34.623Z,8.8
2022-10-05T00:18:38.983Z,8.9
2022-10-05T00:19:43.683Z,8.7
2022-10-05T00:20:48.054Z,8.8
2022-10-05T00:21:52.362Z,8.9
2022-10-05T00:22:59.691Z,8.7
2022-10-05T00:24:03.954Z,8.7
2022-10-05T00:25:08.711Z,8.7
2022-10-05T00:27:20.564Z,8.8
2022-10-05T00:28:24.858Z,8.7
2022-10-05T00:29:29.129Z,8.6
2022-10-05T00:30:33.351Z,8.7
2022-10-05T00:31:37.699Z,8.7
2022-10-05T00:32:42.038Z,8.8
2022-10-05T00:33:46.392Z,8.7
2022-10-05T00:34:50.936Z,8.7
2022-10-05T00:35:55.319Z,8.8
2022-10-05T00:37:01.160Z,8.7
2022-10-05T00:38:05.540Z,8.5
2022-10-05T00:39:09.874Z,8.5
2022-10-05T00:40:13.951Z,8.4
2022-10-05T00:41:23.431Z,8.5
2022-10-05T00:42:30.756Z,8.5
2022-10-05T00:43:40.199Z,8.3
2022-10-05T00:44:44.735Z,8.3
2022-10-05T00:45:54.994Z,8.3
2022-10-05T00:47:07.285Z,8.4
2022-10-05T00:48:21.814Z,8.4
2022-10-05T00:49:31.182Z,8.4
2022-10-05T00:50:43.439Z,8.5
2022-10-05T00:51:58.019Z,8.5
2022-10-05T00:53:07.866Z,8.5
2022-10-05T00:54:15.939Z,8.5
2022-10-05T00:55:26.450Z,8.4
2022-10-05T00:56:35.894Z,8.3
2022-10-05T00:57:50.315Z,8.2
2022-10-05T00:59:00.543Z,8.2
2022-10-05T01:00:10.321Z,8.4
2022-10-05T01:01:14.611Z,8.3
2022-10-05T01:02:26.514Z,8.4
2022-10-05T01:03:31.459Z,8.4
2022-10-05T01:04:40.871Z,8.4
2022-10-05T01:05:55.298Z,8.3
2022-10-05T01:07:04.788Z,8.2
2022-10-05T01:08:14.683Z,8.3
2022-10-05T01:10:42.834Z,8.2
2022-10-05T01:11:54.962Z,8.1
2022-10-05T01:12:59.291Z,8.2
2022-10-05T01:14:13.599Z,8.2
2022-10-05T01:15:28.075Z,8.2
2022-10-05T01:16:37.615Z,8.1
2022-10-05T01:17:47.047Z,8.1
2022-10-05T01:18:59.482Z,8.2
2022-10-05T01:20:12.031Z,8.2
2022-10-05T01:21:16.387Z,8.2
2022-10-05T01:22:20.691Z,8.3
2022-10-05T01:23:30.120Z,8.3
2022-10-05T01:24:41.390Z,8.2
2022-10-05T01:25:55.762Z,8.3
2022-10-05T01:27:10.147Z,8.2
2022-10-05T01:28:19.561Z,8.3
2022-10-05T01:29:26.683Z,8.1
2022-10-05T01:30:31.246Z,8.1
2022-10-05T01:31:38.317Z,8.2
2022-10-05T01:32:45.675Z,8.2
2022-10-05T01:33:55.207Z,8.2
2022-10-05T01:35:04.618Z,8.3
2022-10-05T01:36:11.798Z,8.3
2022-10-05T01:37:21.528Z,8.1
2022-10-05T01:38:30.974Z,8.1
2022-10-05T01:39:45.263Z,8.2
2022-10-05T01:40:54.527Z,8.3
2022-10-05T01:41:58.699Z,8.3
2022-10-05T01:43:07.959Z,8.5
2022-10-05T01:44:12.223Z,8.1
2022-10-05T01:45:16.557Z,8.2
2022-10-05T01:46:29.470Z,8.1
2022-10-05T01:47:38.631Z,8.3
2022-10-05T01:48:48.594Z,8.3
2022-10-05T01:50:03.177Z,8.2
2022-10-05T01:51:15.188Z,8.2
2022-10-05T01:52:19.365Z,8.3
2022-10-05T01:53:23.868Z,8.1
2022-10-05T01:54:38.332Z,8.2
2022-10-05T01:55:47.824Z,8.2
2022-10-05T01:56:59.787Z,8.1
2022-10-05T01:58:14.284Z,8.1
2022-10-05T01:59:23.632Z,8.1
2022-10-05T02:00:38.096Z,8.2
2022-10-05T02:01:44.827Z,8.1
2022-10-05T02:02:52.329Z,8.3
2022-10-05T02:04:01.624Z,8.2
2022-10-05T02:05:16.076Z,8.2
2022-10-05T02:06:20.427Z,8.2
2022-10-05T02:07:24.739Z,8.1
2022-10-05T02:08:37.260Z,8.2
2022-10-05T02:09:41.664Z,8.2
2022-10-05T02:10:45.893Z,8.1
2022-10-05T02:11:50.335Z,8.1
2022-10-05T02:13:02.759Z,8.1
2022-10-05T02:14:12.115Z,8.1
2022-10-05T02:15:16.455Z,8.1
2022-10-05T02:16:20.774Z,8.1
2022-10-05T02:17:34.114Z,8.2
2022-10-05T02:18:46.420Z,8.1
2022-10-05T02:19:58.356Z,8.2
2022-10-05T02:21:06.107Z,8
2022-10-05T02:22:10.259Z,8.1
2022-10-05T02:23:19.541Z,7.9
2022-10-05T02:24:23.926Z,8.1
2022-10-05T02:25:31.474Z,8.1
2022-10-05T02:26:35.892Z,8.1
2022-10-05T02:27:40.159Z,8.2
2022-10-05T02:28:44.532Z,8
2022-10-05T02:29:53.586Z,8.1
2022-10-05T02:30:57.856Z,8
2022-10-05T02:32:10.441Z,8
2022-10-05T02:33:14.872Z,8
2022-10-05T02:34:24.087Z,8
2022-10-05T02:35:28.668Z,8.1
2022-10-05T02:36:33.001Z,8.1
2022-10-05T02:37:37.407Z,8
2022-10-05T02:38:49.144Z,8
2022-10-05T02:39:58.248Z,8
2022-10-05T02:41:12.776Z,8.1
2022-10-05T02:42:31.911Z,8.1
2022-10-05T02:43:43.935Z,8
2022-10-05T02:44:54.036Z,8.1
2022-10-05T02:46:06.283Z,8
2022-10-05T02:47:20.880Z,8.1
2022-10-05T02:48:35.339Z,8.1
2022-10-05T02:49:49.980Z,8.2
2022-10-05T02:50:54.320Z,8.2
2022-10-05T02:52:08.713Z,8.1
2022-10-05T02:54:27.020Z,8.1
2022-10-05T02:55:39.487Z,8.1
2022-10-05T02:56:49.291Z,8.2
2022-10-05T02:58:00.767Z,8.1
2022-10-05T02:59:15.196Z,7.9
2022-10-05T03:00:24.420Z,8.1
2022-10-05T03:01:28.801Z,8.1
2022-10-05T03:02:38.268Z,8.2
2022-10-05T03:03:45.431Z,8.2
2022-10-05T03:04:54.927Z,8.2
2022-10-05T03:06:09.382Z,8.2
2022-10-05T03:07:13.703Z,8.2
2022-10-05T03:08:24.147Z,8.2
2022-10-05T03:09:33.503Z,8.2
2022-10-05T03:10:38.340Z,8.2
2022-10-05T03:11:47.650Z,8.3
2022-10-05T03:12:52.154Z,8.2
2022-10-05T03:14:01.615Z,8.2
2022-10-05T03:15:13.684Z,8.2
2022-10-05T03:16:20.884Z,8.1
2022-10-05T03:17:36.679Z,8.1
2022-10-05T03:18:41.043Z,8.1
2022-10-05T03:19:53.279Z,8
2022-10-05T03:21:04.090Z,8.1
2022-10-05T03:22:20.967Z,8.1
2022-10-05T03:23:33.820Z,8.3
2022-10-05T03:24:52.535Z,8.4
2022-10-05T03:26:05.262Z,8.2
2022-10-05T03:27:20.040Z,8.3
2022-10-05T03:28:29.563Z,8.2
2022-10-05T03:29:36.626Z,8.2
2022-10-05T03:30:46.047Z,8.2
2022-10-05T03:32:01.043Z,8.1
2022-10-05T03:33:15.486Z,8.2
2022-10-05T03:34:28.026Z,8.2
2022-10-05T03:35:42.516Z,8.2
2022-10-05T03:36:56.900Z,8.1
2022-10-05T03:38:01.217Z,8.1
2022-10-05T03:39:15.651Z,8.1
2022-10-05T03:40:25.822Z,8.1
2022-10-05T03:42:43.996Z,8.3
2022-10-05T03:43:56.510Z,8.3
2022-10-05T03:45:08.426Z,8.3
2022-10-05T03:46:17.789Z,8.3
2022-10-05T03:47:28.693Z,8.2
2022-10-05T03:48:40.967Z,8.1
2022-10-05T03:49:48.243Z,8
2022-10-05T03:51:02.584Z,8.1
2022-10-05T03:52:06.759Z,7.9
2022-10-05T03:53:11.151Z,8
2022-10-05T03:54:20.475Z,8
2022-10-05T03:55:32.779Z,8
2022-10-05T03:56:39.803Z,8
2022-10-05T03:57:49.495Z,7.9
2022-10-05T03:58:53.838Z,8
2022-10-05T03:59:58.075Z,7.8
2022-10-05T04:01:10.766Z,7.9
2022-10-05T04:02:15.289Z,7.8
2022-10-05T04:03:27.478Z,7.8
2022-10-05T04:04:38.022Z,7.9
2022-10-05T04:05:50.342Z,7.9
2022-10-05T04:06:54.694Z,8
2022-10-05T04:07:58.847Z,8
2022-10-05T04:09:03.180Z,7.8
2022-10-05T04:10:15.458Z,7.8
2022-10-05T04:11:19.646Z,7.8
2022-10-05T04:12:24.305Z,7.8
2022-10-05T04:13:34.640Z,7.9
2022-10-05T04:14:38.955Z,7.7
2022-10-05T04:15:50.718Z,7.8
2022-10-05T04:17:00.646Z,7.8
2022-10-05T04:18:10.070Z,7.8
2022-10-05T04:19:22.234Z,7.8
2022-10-05T04:20:26.530Z,7.7
2022-10-05T04:21:40.868Z,7.7
2022-10-05T04:22:50.315Z,7.8
2022-10-05T04:23:54.639Z,7.9
2022-10-05T04:25:03.964Z,7.9
2022-10-05T04:26:16.026Z,7.8
2022-10-05T04:27:20.370Z,7.9
2022-10-05T04:28:28.281Z,7.8
2022-10-05T04:29:34.380Z,8
2022-10-05T04:30:39.631Z,8
2022-10-05T04:31:43.908Z,7.9
2022-10-05T04:32:56.074Z,7.7
2022-10-05T04:34:00.396Z,7.9
2022-10-05T04:35:05.104Z,7.9
2022-10-05T04:36:14.362Z,7.8
2022-10-05T04:37:26.451Z,7.8
2022-10-05T04:38:38.632Z,7.9
2022-10-05T04:39:52.931Z,7.9
2022-10-05T04:41:02.266Z,8
2022-10-05T04:42:14.570Z,7.9
2022-10-05T04:43:23.966Z,7.9
2022-10-05T04:44:38.380Z,7.8
2022-10-05T04:45:50.302Z,7.8
2022-10-05T04:46:59.890Z,7.8
2022-10-05T04:48:10.195Z,7.7
2022-10-05T04:49:19.568Z,7.7
2022-10-05T04:50:28.971Z,7.7
2022-10-05T04:51:41.171Z,7.7
2022-10-05T04:52:55.655Z,7.7
2022-10-05T04:54:05.109Z,7.7
2022-10-05T04:55:14.534Z,7.8
2022-10-05T04:56:23.730Z,7.9
2022-10-05T04:58:46.555Z,7.7
2022-10-05T05:00:01.726Z,7.8
2022-10-05T05:01:14.065Z,7.8
2022-10-05T05:02:28.467Z,7.8
2022-10-05T05:03:43.337Z,8
2022-10-05T05:04:55.035Z,7.9
2022-10-05T05:06:22.863Z,7.9
2022-10-05T05:07:23.010Z,7.8
2022-10-05T05:08:32.558Z,7.7
2022-10-05T05:09:47.034Z,7.8
2022-10-05T05:10:56.578Z,7.8
2022-10-05T05:12:10.342Z,7.8
2022-10-05T05:13:24.834Z,7.9
2022-10-05T05:14:37.087Z,7.9
2022-10-05T05:15:51.441Z,8
2022-10-05T05:18:50.059Z,7.9
2022-10-05T05:20:04.414Z,7.9
2022-10-05T05:21:16.878Z,7.9
2022-10-05T05:22:28.929Z,8
2022-10-05T05:23:36.175Z,8
2022-10-05T05:24:48.590Z,7.9
2022-10-05T05:26:00.616Z,8
2022-10-05T05:27:15.184Z,7.9
2022-10-05T05:28:24.772Z,8
2022-10-05T05:29:34.067Z,8
2022-10-05T05:30:42.787Z,7.9
2022-10-05T05:31:53.659Z,8.1
2022-10-05T05:33:06.782Z,8.2
2022-10-05T05:34:19.094Z,8.2
2022-10-05T05:35:33.538Z,8.1
2022-10-05T05:36:37.886Z,8.2
2022-10-05T05:37:52.427Z,8.1
2022-10-05T05:39:06.978Z,8.2
2022-10-05T05:40:21.766Z,8.3
2022-10-05T05:41:26.175Z,8.2
2022-10-05T05:42:38.623Z,8.1
2022-10-05T05:43:52.578Z,8.1
2022-10-05T05:45:02.131Z,8.3
2022-10-05T05:46:18.235Z,8.3
2022-10-05T05:47:27.534Z,8.5
2022-10-05T05:48:35.020Z,8.5
2022-10-05T05:49:42.110Z,8.5
2022-10-05T05:50:52.187Z,8.3
2022-10-05T05:52:08.655Z,8.4
2022-10-05T05:53:16.310Z,8.4
2022-10-05T05:54:25.547Z,8.5
2022-10-05T05:55:34.847Z,8.4
2022-10-05T05:56:39.092Z,8.4
2022-10-05T05:57:43.374Z,8.5
2022-10-05T05:58:56.310Z,8.6
2022-10-05T06:00:09.671Z,8.5
2022-10-05T06:01:32.489Z,8.6
2022-10-05T06:03:29.422Z,8.5
2022-10-05T06:04:39.327Z,8.6
2022-10-05T06:05:54.287Z,8.5
2022-10-05T06:06:59.138Z,8.5
2022-10-05T06:09:06.716Z,8.5
2022-10-05T06:10:21.011Z,8.6
2022-10-05T06:11:25.343Z,8.6
2022-10-05T06:12:34.170Z,8.5
2022-10-05T06:13:38.602Z,8.5
2022-10-05T06:14:43.124Z,8.6
2022-10-05T06:15:49.910Z,8.6
2022-10-05T06:17:00.154Z,8.7
2022-10-05T06:18:12.426Z,8.6
2022-10-05T06:19:17.070Z,8.8
2022-10-05T06:20:21.190Z,8.8
2022-10-05T06:21:31.240Z,8.9
2022-10-05T06:22:43.303Z,8.9
2022-10-05T06:23:50.417Z,9.1
2022-10-05T06:25:02.328Z,9
2022-10-05T06:26:17.119Z,9
2022-10-05T06:27:31.595Z,9.1
2022-10-05T06:28:35.714Z,9.1
2022-10-05T06:29:39.818Z,9.3
2022-10-05T06:30:54.180Z,9.3
2022-10-05T06:32:01.303Z,9.4
2022-10-05T06:33:05.515Z,9.4
2022-10-05T06:34:12.327Z,9.5
2022-10-05T06:35:26.702Z,9.6
2022-10-05T06:36:38.682Z,9.7
2022-10-05T06:37:47.935Z,9.8
2022-10-05T06:39:00.150Z,9.9
2022-10-05T06:40:14.619Z,9.9
2022-10-05T06:41:31.687Z,9.9
2022-10-05T06:42:44.727Z,10
2022-10-05T06:43:58.619Z,10.1
2022-10-05T06:45:05.804Z,10.3
2022-10-05T06:46:18.281Z,10.4
2022-10-05T06:47:25.398Z,10.5
2022-10-05T06:48:32.643Z,10.5
2022-10-05T06:49:47.086Z,10.6
2022-10-05T06:50:51.463Z,10.4
2022-10-05T06:52:05.805Z,10.3
2022-10-05T06:53:13.066Z,10.3
2022-10-05T06:54:25.256Z,10.4
2022-10-05T06:55:39.693Z,10.4
2022-10-05T06:56:54.038Z,10.5
2022-10-05T06:58:10.198Z,10.7
2022-10-05T06:59:22.389Z,10.7
2022-10-05T07:00:31.550Z,10.7
2022-10-05T07:01:38.179Z,10.7
2022-10-05T07:02:48.670Z,10.9
2022-10-05T07:03:57.911Z,10.9
2022-10-05T07:05:12.214Z,10.9
2022-10-05T07:06:26.540Z,11.1
2022-10-05T07:07:39.075Z,11.1
2022-10-05T07:08:43.195Z,11.2
2022-10-05T07:09:47.490Z,11.5
2022-10-05T07:11:02.886Z,11.6
2022-10-05T07:12:11.803Z,11.7
2022-10-05T07:13:26.980Z,11.8
2022-10-05T07:14:39.134Z,12
2022-10-05T07:15:53.621Z,12.2
2022-10-05T07:17:05.122Z,12.2
2022-10-05T07:18:21.836Z,12
2022-10-05T07:19:28.850Z,11.9
2022-10-05T07:20:41.980Z,12
2022-10-05T07:21:50.345Z,12.1
2022-10-05T07:22:54.439Z,12.2
2022-10-05T07:24:01.674Z,12.2
2022-10-05T07:25:14.766Z,12.1
2022-10-05T07:26:21.978Z,12.1
2022-10-05T07:27:31.545Z,12
2022-10-05T07:28:35.805Z,11.9
2022-10-05T07:29:45.238Z,12
2022-10-05T07:31:00.233Z,11.9
2022-10-05T07:32:09.294Z,11.7
2022-10-05T07:33:23.637Z,11.8
2022-10-05T07:34:34.919Z,11.7
2022-10-05T07:35:48.524Z,11.8
2022-10-05T07:37:03.590Z,11.7
2022-10-05T07:38:18.542Z,11.7
2022-10-05T07:39:55.666Z,11.6
2022-10-05T07:40:46.259Z,11.6
2022-10-05T07:41:55.683Z,11.7
2022-10-05T07:43:05.838Z,11.8
2022-10-05T07:44:13.767Z,11.8
2022-10-05T07:45:22.698Z,11.8
2022-10-05T07:46:41.938Z,11.8
2022-10-05T07:47:56.518Z,12
2022-10-05T07:50:10.187Z,12.2
2022-10-05T07:51:17.236Z,12.3
2022-10-05T07:52:33.768Z,12.4
2022-10-05T07:54:42.946Z,12.5
2022-10-05T07:55:57.258Z,12.5
2022-10-05T07:57:01.518Z,12.7
2022-10-05T07:58:18.691Z,12.8
2022-10-05T07:59:28.927Z,12.8
2022-10-05T08:00:41.326Z,12.9
2022-10-05T08:01:50.658Z,12.8
2022-10-05T08:02:54.819Z,12.8
2022-10-05T08:04:02.062Z,12.9
2022-10-05T08:05:16.523Z,12.9
2022-10-05T08:06:26.499Z,13.1
2022-10-05T08:07:38.820Z,13
2022-10-05T08:08:42.942Z,13
2022-10-05T08:09:55.022Z,13.1
2022-10-05T08:11:12.014Z,13.1
2022-10-05T08:12:26.310Z,13.2
2022-10-05T08:13:45.591Z,13.4
2022-10-05T08:14:54.908Z,13.5
2022-10-05T08:16:08.776Z,13.2
2022-10-05T08:17:19.846Z,13.3
2022-10-05T08:18:22.597Z,13.1
2022-10-05T08:19:35.071Z,13.2
2022-10-05T08:20:39.882Z,13.2
2022-10-05T08:21:50.522Z,13.5
2022-10-05T08:23:00.230Z,13.7
2022-10-05T08:24:07.131Z,13.5
2022-10-05T08:25:20.978Z,13.5
2022-10-05T08:26:25.258Z,13.5
2022-10-05T08:27:46.568Z,13.5
2022-10-05T08:28:57.018Z,13.7
2022-10-05T08:30:01.276Z,13.6
2022-10-05T08:31:05.855Z,13.6
2022-10-05T08:32:12.682Z,13.6
2022-10-05T08:33:23.186Z,13.6
2022-10-05T08:34:27.425Z,13.5
2022-10-05T08:35:41.706Z,13.5
2022-10-05T08:36:49.207Z,13.7
2022-10-05T08:37:56.468Z,13.8
2022-10-05T08:39:03.648Z,13.6
2022-10-05T08:40:07.906Z,13.8
2022-10-05T08:41:17.246Z,13.6
2022-10-05T08:42:34.366Z,13.8
2022-10-05T08:43:48.994Z,13.8
2022-10-05T08:45:03.336Z,13.8
2022-10-05T08:47:19.254Z,14
2022-10-05T08:48:28.910Z,14.1
2022-10-05T08:49:43.419Z,14
2022-10-05T08:50:59.865Z,13.9
2022-10-05T08:52:14.357Z,14.2
2022-10-05T08:53:24.686Z,14.2
2022-10-05T08:54:39.098Z,14.2
2022-10-05T08:55:53.578Z,14.3
2022-10-05T08:57:08.078Z,14.3
2022-10-05T08:58:22.645Z,14.1
2022-10-05T08:59:37.082Z,14.3
2022-10-05T09:00:51.778Z,14.2
2022-10-05T09:02:01.362Z,14.1
2022-10-05T09:03:13.102Z,14.1
2022-10-05T09:04:20.520Z,14.4
2022-10-05T09:05:32.478Z,14.4
2022-10-05T09:06:41.813Z,14.2
2022-10-05T09:07:46.101Z,14.3
2022-10-05T09:08:59.569Z,14.3
2022-10-05T09:10:14.267Z,14.2
2022-10-05T09:11:28.663Z,14.2
2022-10-05T09:12:42.977Z,14.2
2022-10-05T09:13:52.171Z,14.3
2022-10-05T09:15:24.653Z,14.5
2022-10-05T09:16:13.964Z,14.6
2022-10-05T09:17:29.586Z,14.6
2022-10-05T09:18:39.414Z,14.5
2022-10-05T09:19:48.618Z,14.6
2022-10-05T09:20:52.878Z,14.7
2022-10-05T09:21:59.722Z,14.7
2022-10-05T09:23:15.453Z,14.7
2022-10-05T09:24:24.646Z,14.6
2022-10-05T09:25:29.154Z,14.6
2022-10-05T09:26:38.519Z,14.7
2022-10-05T09:27:57.232Z,14.6
2022-10-05T09:29:09.485Z,14.6
2022-10-05T09:30:18.838Z,14.7
2022-10-05T09:31:30.676Z,14.8
2022-10-05T09:32:44.918Z,14.7
2022-10-05T09:33:54.313Z,14.8
2022-10-05T09:35:03.910Z,14.9
2022-10-05T09:36:18.313Z,14.9
2022-10-05T09:37:27.810Z,15
2022-10-05T09:38:37.113Z,15.2
2022-10-05T09:39:49.458Z,15.2
2022-10-05T09:41:04.131Z,15.1
2022-10-05T09:42:13.426Z,15.1
2022-10-05T09:43:25.010Z,15.1
2022-10-05T09:44:39.678Z,15
2022-10-05T09:45:54.088Z,15.1
2022-10-05T09:47:08.377Z,15.3
2022-10-05T09:48:17.678Z,15.3
2022-10-05T09:49:32.298Z,15.4
2022-10-05T09:50:46.608Z,15.3
2022-10-05T09:51:58.857Z,15.4
2022-10-05T09:53:05.798Z,15.4
2022-10-05T09:54:15.026Z,15.4
2022-10-05T09:55:29.610Z,15.3
2022-10-05T09:56:36.618Z,15.3
2022-10-05T09:57:49.419Z,15.4
2022-10-05T09:59:03.041Z,15.4
2022-10-05T10:00:15.112Z,15.5
2022-10-05T10:01:33.431Z,15.6
2022-10-05T10:02:36.781Z,15.7
2022-10-05T10:03:54.950Z,15.7
2022-10-05T10:05:07.044Z,15.8
2022-10-05T10:06:19.319Z,15.9
2022-10-05T10:07:33.622Z,15.8
2022-10-05T10:08:46.049Z,15.9
2022-10-05T10:09:58.886Z,15.8
2022-10-05T10:11:13.230Z,15.7
2022-10-05T10:12:25.225Z,15.6
2022-10-05T10:13:35.742Z,15.7
2022-10-05T10:14:50.055Z,15.7
2022-10-05T10:16:04.566Z,15.7
2022-10-05T10:17:18.831Z,15.9
2022-10-05T10:18:30.853Z,16
2022-10-05T10:19:45.303Z,16.1
2022-10-05T10:20:59.066Z,16.1
2022-10-05T10:22:08.582Z,16.2
2022-10-05T10:23:20.701Z,16.2
2022-10-05T10:24:33.083Z,16.4
2022-10-05T10:25:47.725Z,16.5
2022-10-05T10:26:57.042Z,16.6
2022-10-05T10:28:11.452Z,16.3
2022-10-05T10:29:20.936Z,16.3
2022-10-05T10:30:26.392Z,16.5
2022-10-05T10:31:39.750Z,16.7
2022-10-05T10:32:54.350Z,16.8
2022-10-05T10:34:08.795Z,16.8
2022-10-05T10:35:20.889Z,16.9
2022-10-05T10:36:33.178Z,17.1
2022-10-05T10:37:45.006Z,17
2022-10-05T10:39:02.464Z,17
2022-10-05T10:40:19.270Z,17.1
2022-10-05T10:41:33.751Z,16.9
2022-10-05T10:42:48.081Z,17
2022-10-05T10:44:01.177Z,17
2022-10-05T10:45:13.397Z,17
2022-10-05T10:46:21.132Z,17
2022-10-05T10:47:35.610Z,16.8
2022-10-05T10:48:50.038Z,16.9
2022-10-05T10:50:00.119Z,16.9
2022-10-05T10:51:12.236Z,16.8
2022-10-05T10:52:25.007Z,16.9
2022-10-05T10:53:34.421Z,16.8
2022-10-05T10:54:43.941Z,17
2022-10-05T10:55:58.405Z,16.9
2022-10-05T10:57:13.606Z,16.8
2022-10-05T10:59:34.133Z,16.9
2022-10-05T11:00:43.546Z,17.1
2022-10-05T11:01:51.271Z,17.2
2022-10-05T11:03:03.214Z,17.2
2022-10-05T11:04:12.687Z,17.4
2022-10-05T11:05:27.082Z,17.4
2022-10-05T11:06:41.414Z,17.5
2022-10-05T11:07:55.847Z,17.5
2022-10-05T11:09:05.091Z,17.2
2022-10-05T11:10:09.278Z,17.3
2022-10-05T11:11:24.446Z,17.4
2022-10-05T11:12:39.186Z,17.5
2022-10-05T11:13:48.450Z,17.4
2022-10-05T11:15:03.209Z,17.4
2022-10-05T11:16:14.555Z,17.5
2022-10-05T11:17:19.770Z,17.5
2022-10-05T11:18:35.454Z,17.2
2022-10-05T11:20:03.426Z,17.1
2022-10-05T11:21:00.253Z,17
2022-10-05T11:22:16.045Z,17.1
2022-10-05T11:24:39.765Z,17.1
2022-10-05T11:25:55.734Z,17
2022-10-05T11:27:10.493Z,16.9
2022-10-05T11:28:22.869Z,17.1
2022-10-05T11:29:36.133Z,17.1
2022-10-05T11:30:47.431Z,17.1
2022-10-05T11:32:00.571Z,17.2
2022-10-05T11:33:15.746Z,17.4
2022-10-05T11:34:25.029Z,17.4
2022-10-05T11:35:39.449Z,17.4
2022-10-05T11:36:52.344Z,17.5
2022-10-05T11:38:05.261Z,17.5
2022-10-05T11:39:19.661Z,17.6
2022-10-05T11:40:31.715Z,17.5
2022-10-05T11:41:43.741Z,17.4
2022-10-05T11:42:58.305Z,17.3
2022-10-05T11:44:08.201Z,17.4
2022-10-05T11:45:16.299Z,17.2
2022-10-05T11:46:26.374Z,17.2
2022-10-05T11:47:36.286Z,17.1
2022-10-05T11:48:45.597Z,17.2
2022-10-05T11:49:59.988Z,17.3
2022-10-05T11:51:12.256Z,17.3
2022-10-05T11:52:24.745Z,17.3
2022-10-05T11:53:39.245Z,17.4
2022-10-05T11:55:06.261Z,17.4
2022-10-05T11:55:55.450Z,17.4
2022-10-05T11:57:09.749Z,17.4
2022-10-05T11:58:22.006Z,17.5
2022-10-05T11:59:29.341Z,17.5
2022-10-05T12:00:33.558Z,17.5
2022-10-05T12:01:40.810Z,17.3
2022-10-05T12:03:56.707Z,17.5
2022-10-05T12:05:10.941Z,17.5
2022-10-05T12:06:20.229Z,17.4
2022-10-05T12:07:29.564Z,17.4
2022-10-05T12:08:38.876Z,17.4
2022-10-05T12:09:54.051Z,17.4
2022-10-05T12:11:13.571Z,17.4
2022-10-05T12:12:28.609Z,17.4
2022-10-05T12:13:41.058Z,17.4
2022-10-05T12:14:50.837Z,17.3
2022-10-05T12:16:01.085Z,17.4
2022-10-05T12:17:13.125Z,17.2
2022-10-05T12:18:22.912Z,17.2
2022-10-05T12:20:35.577Z,17.4
2022-10-05T12:21:40.031Z,17.5
2022-10-05T12:22:49.925Z,17.4
2022-10-05T12:23:54.241Z,17.4
2022-10-05T12:25:06.130Z,17.3
2022-10-05T12:26:15.360Z,17.4
2022-10-05T12:27:24.829Z,17.4
2022-10-05T12:28:29.588Z,17.4
2022-10-05T12:29:35.685Z,17.3
2022-10-05T12:31:51.437Z,17.4
2022-10-05T12:33:05.891Z,17.2
2022-10-05T12:34:13.761Z,17.2
2022-10-05T12:35:43.689Z,17.3
2022-10-05T12:36:59.499Z,17.3
2022-10-05T12:37:48.362Z,17.3
2022-10-05T12:38:57.646Z,17.3
2022-10-05T12:40:09.661Z,17.3
2022-10-05T12:41:19.426Z,17.2
2022-10-05T12:42:28.677Z,17.3
2022-10-05T12:43:35.862Z,17.3
2022-10-05T12:44:51.377Z,17.2
2022-10-05T12:46:00.966Z,17.2
2022-10-05T12:47:15.558Z,17.2
2022-10-05T12:48:22.626Z,17.2
2022-10-05T12:49:37.041Z,17.2
2022-10-05T12:50:47.645Z,17.3
2022-10-05T12:51:56.869Z,17.2
2022-10-05T12:53:06.253Z,17.1
2022-10-05T12:54:15.677Z,17.2
2022-10-05T12:55:25.083Z,17.3
2022-10-05T12:56:34.612Z,17.3
2022-10-05T12:57:43.848Z,17.4
2022-10-05T12:58:54.545Z,17.4
2022-10-05T13:00:03.831Z,17.3
2022-10-05T13:01:14.240Z,17.2
2022-10-05T13:02:28.637Z,17.3
2022-10-05T13:03:38.177Z,17.4
2022-10-05T13:04:51.313Z,17.3
2022-10-05T13:06:03.417Z,17.3
2022-10-05T13:07:10.369Z,17.3
2022-10-05T13:08:23.059Z,17.3
2022-10-05T13:09:35.849Z,17.4
2022-10-05T13:10:48.406Z,17.4
2022-10-05T13:11:57.781Z,17.3
2022-10-05T13:13:04.605Z,17.3
2022-10-05T13:14:19.081Z,17.2
2022-10-05T13:15:33.705Z,17.4
2022-10-05T13:16:38.358Z,17.4
2022-10-05T13:17:50.600Z,17.3
2022-10-05T13:19:00.115Z,17.3
2022-10-05T13:20:09.916Z,17.2
2022-10-05T13:22:29.155Z,17.1
2022-10-05T13:23:41.480Z,17.2
2022-10-05T13:24:56.079Z,17.3
2022-10-05T13:26:03.221Z,17.3
2022-10-05T13:27:07.641Z,17.3
2022-10-05T13:28:17.778Z,17.2
2022-10-05T13:29:27.741Z,17.1
2022-10-05T13:30:29.951Z,17.1
2022-10-05T13:31:34.185Z,17.2
2022-10-05T13:32:41.260Z,17
2022-10-05T13:33:45.473Z,17.2
2022-10-05T13:35:00.322Z,17.1
2022-10-05T13:36:15.134Z,17.1
2022-10-05T13:37:27.911Z,17.1
2022-10-05T13:38:42.151Z,17.2
2022-10-05T13:39:51.912Z,17.2
2022-10-05T13:40:58.871Z,17.2
2022-10-05T13:42:03.451Z,17.2
2022-10-05T13:43:15.732Z,17
2022-10-05T13:44:22.664Z,17.1
2022-10-05T13:45:32.443Z,17.1
2022-10-05T13:46:47.092Z,16.9
2022-10-05T13:48:01.466Z,17
2022-10-05T13:49:16.148Z,17
2022-10-05T13:50:27.441Z,17.1
2022-10-05T13:51:29.956Z,17
2022-10-05T13:52:36.720Z,17
2022-10-05T13:53:46.868Z,17.1
2022-10-05T13:55:02.204Z,17
2022-10-05T13:56:09.592Z,16.9
2022-10-05T13:57:21.732Z,16.9
2022-10-05T13:58:26.036Z,16.9
2022-10-05T13:59:36.193Z,17.1
2022-10-05T14:00:45.695Z,17
2022-10-05T14:01:55.294Z,17
2022-10-05T14:03:02.505Z,17
2022-10-05T14:04:06.759Z,17.1
2022-10-05T14:05:16.859Z,17
2022-10-05T14:06:21.172Z,17
2022-10-05T14:07:25.432Z,16.9
2022-10-05T14:08:32.784Z,17
2022-10-05T14:09:36.931Z,16.9
2022-10-05T14:10:41.299Z,16.9
2022-10-05T14:11:45.578Z,16.8
2022-10-05T14:12:50.039Z,16.8
2022-10-05T14:13:54.416Z,16.9
2022-10-05T14:15:03.715Z,16.9
2022-10-05T14:16:14.107Z,16.9
2022-10-05T14:17:26.093Z,16.7
2022-10-05T14:18:31.761Z,16.7
2022-10-05T14:19:36.247Z,16.7
2022-10-05T14:20:46.176Z,16.7
2022-10-05T14:22:02.429Z,16.7
2022-10-05T14:23:11.884Z,16.7
2022-10-05T14:24:25.814Z,16.7
2022-10-05T14:25:21.487Z,16.8
2022-10-05T14:26:25.729Z,16.8
2022-10-05T14:27:33.169Z,16.7
2022-10-05T14:28:45.334Z,16.7
2022-10-05T14:29:54.939Z,16.7
2022-10-05T14:30:59.465Z,16.7
2022-10-05T14:32:06.395Z,16.6
2022-10-05T14:33:15.717Z,16.6
2022-10-05T14:34:20.271Z,16.6
2022-10-05T14:35:32.791Z,16.6
2022-10-05T14:36:47.512Z,16.6
2022-10-05T14:37:52.095Z,16.7
2022-10-05T14:39:01.745Z,16.6
2022-10-05T14:40:06.067Z,16.5
2022-10-05T14:41:20.648Z,16.5
2022-10-05T14:42:28.179Z,16.5
2022-10-05T14:43:32.600Z,16.6
2022-10-05T14:44:37.732Z,16.6
2022-10-05T14:45:42.914Z,16.4
2022-10-05T14:46:51.988Z,16.5
2022-10-05T14:47:56.472Z,16.6
2022-10-05T14:49:00.865Z,16.6
2022-10-05T14:50:13.163Z,16.5
2022-10-05T14:51:23.204Z,16.5
2022-10-05T14:52:27.556Z,16.6
2022-10-05T14:53:34.975Z,16.6
2022-10-05T14:54:39.255Z,16.5
2022-10-05T14:55:51.471Z,16.5
2022-10-05T14:57:00.760Z,16.4
2022-10-05T14:58:05.191Z,16.4
2022-10-05T14:59:14.555Z,16.5
2022-10-05T15:00:26.568Z,16.5
2022-10-05T15:01:30.943Z,16.5
2022-10-05T15:02:35.100Z,16.4
2022-10-05T15:03:47.003Z,16.5
2022-10-05T15:05:01.589Z,16.4
2022-10-05T15:06:05.808Z,16.3
2022-10-05T15:07:10.139Z,16.3
2022-10-05T15:08:22.470Z,16.3
2022-10-05T15:09:34.563Z,16.2
2022-10-05T15:10:49.179Z,16.3
2022-10-05T15:11:53.495Z,16.4
2022-10-05T15:12:58.263Z,16.3
2022-10-05T15:14:05.945Z,16.2
2022-10-05T15:15:13.756Z,16.2
2022-10-05T15:16:23.322Z,16.2
2022-10-05T15:17:27.511Z,16.2
2022-10-05T15:18:35.010Z,16.1
2022-10-05T15:19:44.299Z,16.2
2022-10-05T15:20:53.663Z,16.2
2022-10-05T15:22:03.624Z,16.1
2022-10-05T15:23:16.909Z,16.2
2022-10-05T15:24:31.666Z,16.1
2022-10-05T15:25:39.441Z,16.2
2022-10-05T15:26:46.173Z,16.2
2022-10-05T15:27:56.205Z,16.1
2022-10-05T15:29:10.800Z,16.2
2022-10-05T15:30:18.578Z,16
2022-10-05T15:31:22.934Z,16.1
2022-10-05T15:32:37.278Z,16
2022-10-05T15:33:41.709Z,16
2022-10-05T15:34:46.044Z,16
2022-10-05T15:35:58.905Z,16
2022-10-05T15:37:13.375Z,15.9
2022-10-05T15:38:17.730Z,15.9
2022-10-05T15:39:25.417Z,15.9
2022-10-05T15:40:37.318Z,15.9
2022-10-05T15:41:46.647Z,16
2022-10-05T15:42:53.605Z,15.8
2022-10-05T15:43:58.932Z,15.9
2022-10-05T15:45:09.141Z,15.7
2022-10-05T15:46:16.251Z,15.8
2022-10-05T15:47:23.100Z,15.7
2022-10-05T15:48:33.624Z,15.7
2022-10-05T15:49:47.960Z,15.7
2022-10-05T15:50:55.139Z,15.7
2022-10-05T15:52:04.709Z,15.7
2022-10-05T15:53:16.977Z,15.7
2022-10-05T15:54:21.881Z,15.7
2022-10-05T15:55:39.376Z,15.7
2022-10-05T15:56:48.713Z,15.8
2022-10-05T15:57:58.122Z,15.7
2022-10-05T15:59:15.481Z,15.6
2022-10-05T16:00:20.874Z,15.5
2022-10-05T16:01:25.472Z,15.6
2022-10-05T16:02:33.591Z,15.6
2022-10-05T16:03:37.928Z,15.5
2022-10-05T16:04:47.476Z,15.6
2022-10-05T16:05:56.809Z,15.5
2022-10-05T16:07:08.828Z,15.5
2022-10-05T16:08:18.404Z,15.5
2022-10-05T16:09:38.072Z,15.4